グランド・テール島 の空港の天気 - METARとTAF

ポワンタピートル国際空港 ( TFFR / PTP ) - グアドループ グランド・テール島
飛行場実況気象(Metar)
観測時間12/16 03:00 AST (12/16 07:00 UTC)
風向・風速東北東 4m/s
視程10km以上
天気現象
少しの雲 雲底高度 790m
全天の8割程度の雲 雲底高度 3350m
全天の8割程度の雲 雲底高度 4270m
気温25℃
湿度83%
気圧1015hPa
METARTFFR 160700Z AUTO 07007KT 9999 FEW026/// BKN110/// BKN140/// ///TCU 25/22 Q1015 TEMPO 3000 SHRA
過去の天気等 Google飛行場航空写真 Wunderground天気予報

過去48時間のMETAR

飛行場予報(TAF)
発表時間: 12/16 01:00 AST (12/16 05:00 UTC)
予報対象時間: 16日2時 AST ~ 17日2時 AST
風向・風速東南東 4m/s
視程10km以上
全天の4割程度の雲 雲底高度 910m
16日2時 AST ~ 17日2時 AST に 確率 30% で一時的に
視程3000m
天気現象しゅう雨
全天の8割程度の塔状積雲 雲底高度 460m
TAF TFFR 160500Z 1606/1706 11008KT 9999 SCT030
PROB30 TEMPO 1606/1706 3000 SHRA BKN015TCU